createdAt,value
2022-09-14T00:01:34.617Z,95766.41
2022-09-14T00:04:10.823Z,95769.81
2022-09-14T00:06:37.963Z,95774.38
2022-09-14T00:09:10.943Z,95762.63
2022-09-14T00:11:38.038Z,95760.25
2022-09-14T00:14:06.213Z,95764.25
2022-09-14T00:16:37.114Z,95769.06
2022-09-14T00:19:07.887Z,95768.50
2022-09-14T00:21:37.730Z,95766.16
2022-09-14T00:24:07.154Z,95760.28
2022-09-14T00:26:34.499Z,95769.06
2022-09-14T00:29:05.102Z,95768.50
2022-09-14T00:31:35.514Z,95781.81
2022-09-14T00:34:03.168Z,95783.91
2022-09-14T00:36:31.783Z,95788.47
2022-09-14T00:39:00.529Z,95780.75
2022-09-14T00:41:32.437Z,95784.22
2022-09-14T00:44:28.147Z,95776.25
2022-09-14T00:46:58.623Z,95771.19
2022-09-14T00:49:34.159Z,95763.75
2022-09-14T00:52:19.371Z,95767.47
2022-09-14T00:54:49.914Z,95765.34
2022-09-14T00:57:18.458Z,95774.91
2022-09-14T00:59:48.990Z,95763.19
2022-09-14T01:02:16.915Z,95756.00
2022-09-14T01:04:44.279Z,95763.72
2022-09-14T01:07:47.923Z,95753.03
2022-09-14T01:10:51.938Z,95757.81
2022-09-14T01:13:57.360Z,95758.84
2022-09-14T01:17:28.356Z,95739.47
2022-09-14T01:20:22.270Z,95724.25
2022-09-14T01:23:42.890Z,95720.53
2022-09-14T01:26:33.718Z,95709.63
2022-09-14T01:29:30.839Z,95703.50
2022-09-14T01:32:26.193Z,95708.25
2022-09-14T01:35:07.895Z,95712.56
2022-09-14T01:38:03.862Z,95693.41
2022-09-14T01:40:36.780Z,95687.03
2022-09-14T01:43:36.676Z,95700.84
2022-09-14T01:46:13.568Z,95708.31
2022-09-14T01:49:03.168Z,95705.66
2022-09-14T01:51:46.502Z,95687.81
2022-09-14T01:54:34.252Z,95694.50
2022-09-14T01:57:22.471Z,95692.84
2022-09-14T01:59:54.494Z,95696.06
2022-09-14T02:02:30.820Z,95695.56
2022-09-14T02:05:07.647Z,95681.69
2022-09-14T02:07:37.068Z,95671.59
2022-09-14T02:10:08.451Z,95671.03
2022-09-14T02:12:36.243Z,95680.63
2022-09-14T02:15:04.820Z,95682.75
2022-09-14T02:17:31.680Z,95677.97
2022-09-14T02:20:02.125Z,95671.06
2022-09-14T02:22:30.803Z,95672.13
2022-09-14T02:24:58.281Z,95670.53
2022-09-14T02:27:25.624Z,95674.56
2022-09-14T02:29:53.065Z,95665.75
2022-09-14T02:32:47.599Z,95675.34
2022-09-14T02:35:32.010Z,95676.41
2022-09-14T02:38:40.584Z,95667.84
2022-09-14T02:41:41.986Z,95664.13
2022-09-14T02:44:45.814Z,95655.09
2022-09-14T02:47:23.895Z,95662.00
2022-09-14T02:50:17.998Z,95652.41
2022-09-14T02:53:01.116Z,95653.19
2022-09-14T02:55:35.682Z,95649.22
2022-09-14T02:58:10.210Z,95642.28
2022-09-14T03:00:46.617Z,95637.75
2022-09-14T03:03:17.488Z,95627.66
2022-09-14T03:05:44.534Z,95618.59
2022-09-14T03:08:12.054Z,95621.25
2022-09-14T03:10:42.209Z,95621.22
2022-09-14T03:13:09.043Z,95617.22
2022-09-14T03:15:35.886Z,95634.81
2022-09-14T03:18:02.622Z,95626.31
2022-09-14T03:20:32.583Z,95630.56
2022-09-14T03:23:00.699Z,95629.50
2022-09-14T03:25:28.652Z,95624.69
2022-09-14T03:27:59.947Z,95614.06
2022-09-14T03:30:27.874Z,95611.94
2022-09-14T03:32:54.830Z,95612.97
2022-09-14T03:35:21.635Z,95605.00
2022-09-14T03:37:48.415Z,95596.47
2022-09-14T03:40:21.676Z,95602.34
2022-09-14T03:42:50.819Z,95595.16
2022-09-14T03:45:18.969Z,95587.97
2022-09-14T03:47:46.819Z,95593.81
2022-09-14T03:50:15.203Z,95591.16
2022-09-14T03:52:42.067Z,95586.38
2022-09-14T03:55:09.591Z,95586.38
2022-09-14T03:57:36.403Z,95598.09
2022-09-14T04:00:06.565Z,95602.34
2022-09-14T04:02:33.490Z,95604.47
2022-09-14T04:05:00.333Z,95607.66
2022-09-14T04:07:27.163Z,95606.59
2022-09-14T04:09:53.914Z,95617.25
2022-09-14T04:12:20.664Z,95618.84
2022-09-14T04:14:47.417Z,95624.97
2022-09-14T04:17:14.168Z,95623.09
2022-09-14T04:19:42.058Z,95632.16
2022-09-14T04:22:09.023Z,95633.22
2022-09-14T04:24:35.863Z,95632.69
2022-09-14T04:27:02.768Z,95645.47
2022-09-14T04:29:30.488Z,95652.16
2022-09-14T04:31:57.949Z,95641.22
2022-09-14T04:34:24.798Z,95647.06
2022-09-14T04:36:51.635Z,95639.09
2022-09-14T04:39:18.474Z,95626.84
2022-09-14T04:41:45.273Z,95630.56
2022-09-14T04:44:12.544Z,95634.56
2022-09-14T04:46:46.167Z,95631.63
2022-09-14T04:49:16.472Z,95621.25
2022-09-14T04:51:43.213Z,95613.00
2022-09-14T04:54:17.303Z,95610.84
2022-09-14T04:56:44.960Z,95611.41
2022-09-14T04:59:12.515Z,95601.28
2022-09-14T05:01:47.369Z,95597.03
2022-09-14T05:04:14.298Z,95604.22
2022-09-14T05:06:42.745Z,95598.63
2022-09-14T05:09:16.390Z,95610.34
2022-09-14T05:11:44.112Z,95618.34
2022-09-14T05:14:14.998Z,95619.94
2022-09-14T05:16:43.957Z,95618.88
2022-09-14T05:19:18.251Z,95610.34
2022-09-14T05:21:45.668Z,95617.81
2022-09-14T05:24:17.142Z,95616.44
2022-09-14T05:26:45.115Z,95612.47
2022-09-14T05:29:18.026Z,95613.53
2022-09-14T05:31:45.590Z,95613.03
2022-09-14T05:34:13.118Z,95609.28
2022-09-14T05:36:40.800Z,95611.41
2022-09-14T05:39:08.397Z,95611.97
2022-09-14T05:41:35.368Z,95617.28
2022-09-14T05:44:02.351Z,95597.81
2022-09-14T05:46:30.289Z,95589.06
2022-09-14T05:48:57.077Z,95590.09
2022-09-14T05:51:26.335Z,95595.69
2022-09-14T05:53:56.841Z,95598.88
2022-09-14T05:56:28.027Z,95602.84
2022-09-14T05:58:55.354Z,95596.47
2022-09-14T06:01:25.725Z,95592.25
2022-09-14T06:04:02.272Z,95586.91
2022-09-14T06:06:31.045Z,95571.47
2022-09-14T06:08:57.945Z,95575.69
2022-09-14T06:11:28.539Z,95581.56
2022-09-14T06:13:56.857Z,95585.06
2022-09-14T06:16:25.908Z,95582.38
2022-09-14T06:18:55.398Z,95573.53
2022-09-14T06:21:22.570Z,95586.00
2022-09-14T06:23:51.041Z,95585.28
2022-09-14T06:26:17.980Z,95585.81
2022-09-14T06:28:44.989Z,95590.88
2022-09-14T06:31:14.453Z,95588.47
2022-09-14T06:33:48.526Z,95588.44
2022-09-14T06:36:19.607Z,95592.84
2022-09-14T06:38:49.653Z,95588.81
2022-09-14T06:41:20.340Z,95584.28
2022-09-14T06:43:47.979Z,95589.66
2022-09-14T06:46:21.007Z,95586.69
2022-09-14T06:49:02.618Z,95598.81
2022-09-14T06:51:39.727Z,95586.34
2022-09-14T06:54:07.894Z,95582.69
2022-09-14T06:56:39.182Z,95587.41
2022-09-14T06:59:08.594Z,95580.63
2022-09-14T07:01:36.215Z,95570.91
2022-09-14T07:04:04.013Z,95580.38
2022-09-14T07:06:38.822Z,95556.88
2022-09-14T07:09:05.771Z,95549.81
2022-09-14T07:11:33.295Z,95566.53
2022-09-14T07:14:00.149Z,95580.09
2022-09-14T07:16:28.209Z,95571.75
2022-09-14T07:18:57.532Z,95584.53
2022-09-14T07:21:25.550Z,95588.13
2022-09-14T07:23:52.832Z,95587.75
2022-09-14T07:26:25.834Z,95574.22
2022-09-14T07:29:01.492Z,95573.91
2022-09-14T07:31:45.355Z,95567.13
2022-09-14T07:34:13.215Z,95580.72
2022-09-14T07:36:41.011Z,95581.34
2022-09-14T07:39:12.340Z,95581.94
2022-09-14T07:41:39.182Z,95574.44
2022-09-14T07:44:08.040Z,95575.47
2022-09-14T07:46:41.594Z,95584.78
2022-09-14T07:49:10.155Z,95575.44
2022-09-14T07:51:38.218Z,95575.38
2022-09-14T07:54:07.215Z,95585.38
2022-09-14T07:56:34.992Z,95581.34
2022-09-14T07:59:30.904Z,95596.44
2022-09-14T08:01:50.308Z,95589.84
2022-09-14T08:04:17.543Z,95588.88
2022-09-14T08:06:44.338Z,95581.34
2022-09-14T08:09:11.144Z,95581.16
2022-09-14T08:11:38.524Z,95592.94
2022-09-14T08:14:11.726Z,95587.19
2022-09-14T08:16:40.434Z,95590.22
2022-09-14T08:19:13.456Z,95593.47
2022-09-14T08:21:45.676Z,95600.28
2022-09-14T08:24:17.535Z,95612.94
2022-09-14T08:26:44.893Z,95602.69
2022-09-14T08:29:13.671Z,95600.28
2022-09-14T08:31:40.994Z,95600.47
2022-09-14T08:34:08.608Z,95589.09
2022-09-14T08:36:40.105Z,95598.47
2022-09-14T08:39:10.418Z,95591.94
2022-09-14T08:41:51.748Z,95594.31
2022-09-14T08:44:43.068Z,95585.88
2022-09-14T08:47:34.190Z,95577.97
2022-09-14T08:50:09.318Z,95590.25
2022-09-14T08:52:37.341Z,95591.34
2022-09-14T08:55:34.521Z,95600.44
2022-09-14T08:58:09.701Z,95590.28
2022-09-14T09:01:18.285Z,95587.38
2022-09-14T09:04:00.454Z,95582.81
2022-09-14T09:07:05.810Z,95598.06
2022-09-14T09:09:47.577Z,95596.69
2022-09-14T09:12:37.580Z,95594.47
2022-09-14T09:15:34.205Z,95612.22
2022-09-14T09:18:20.531Z,95618.31
2022-09-14T09:21:02.888Z,95624.81
2022-09-14T09:23:33.070Z,95614.72
2022-09-14T09:26:31.697Z,95611.97
2022-09-14T09:29:01.514Z,95609.78
2022-09-14T09:31:35.798Z,95617.63
2022-09-14T09:34:03.974Z,95617.19
2022-09-14T09:36:37.199Z,95630.22
2022-09-14T09:39:05.530Z,95627.66
2022-09-14T09:41:53.098Z,95634.13
2022-09-14T09:44:20.217Z,95623.38
2022-09-14T09:46:58.489Z,95626.50
2022-09-14T09:49:35.327Z,95623.81
2022-09-14T09:52:15.555Z,95628.78
2022-09-14T09:54:50.112Z,95617.31
2022-09-14T09:57:34.202Z,95602.88
2022-09-14T10:00:22.178Z,95613.38
2022-09-14T10:02:49.626Z,95621.56
2022-09-14T10:05:31.577Z,95607.72
2022-09-14T10:08:00.883Z,95600.25
2022-09-14T10:10:39.174Z,95597.47
2022-09-14T10:13:26.111Z,95581.50
2022-09-14T10:15:54.027Z,95575.25
2022-09-14T10:18:22.277Z,95580.88
2022-09-14T10:20:54.812Z,95572.03
2022-09-14T10:23:26.606Z,95573.56
2022-09-14T10:26:16.054Z,95567.59
2022-09-14T10:28:46.314Z,95559.03
2022-09-14T10:31:26.120Z,95561.66
2022-09-14T10:33:57.043Z,95547.09
2022-09-14T10:36:38.040Z,95551.91
2022-09-14T10:39:34.066Z,95562.81
2022-09-14T10:42:17.623Z,95554.69
2022-09-14T10:45:03.482Z,95552.63
2022-09-14T10:48:12.903Z,95542.13
2022-09-14T10:51:02.111Z,95526.94
2022-09-14T10:53:50.211Z,95526.88
2022-09-14T10:56:27.054Z,95523.56
2022-09-14T11:00:09.772Z,95530.31
2022-09-14T11:03:13.502Z,95525.94
2022-09-14T11:06:20.774Z,95525.13
2022-09-14T11:09:03.330Z,95507.22
2022-09-14T11:11:41.617Z,95495.69
2022-09-14T11:14:14.099Z,95488.69
2022-09-14T11:17:08.520Z,95494.31
2022-09-14T11:20:15.478Z,95484.38
2022-09-14T11:23:14.533Z,95494.47
2022-09-14T11:25:59.966Z,95491.63
2022-09-14T11:29:06.582Z,95490.63
2022-09-14T11:32:10.175Z,95463.00
2022-09-14T11:35:01.092Z,95479.09
2022-09-14T11:37:50.734Z,95474.06
2022-09-14T11:40:32.993Z,95479.88
2022-09-14T11:43:19.054Z,95475.31
2022-09-14T11:46:10.274Z,95477.59
2022-09-14T11:49:11.286Z,95483.81
2022-09-14T11:52:08.163Z,95474.44
2022-09-14T11:54:41.512Z,95483.50
2022-09-14T11:57:18.616Z,95470.63
2022-09-14T11:59:55.698Z,95477.84
2022-09-14T12:02:25.724Z,95469.69
2022-09-14T12:05:04.726Z,95454.03
2022-09-14T12:08:01.470Z,95446.84
2022-09-14T12:10:29.603Z,95453.25
2022-09-14T12:13:06.827Z,95439.50
2022-09-14T12:15:41.003Z,95439.34
2022-09-14T12:18:07.713Z,95434.63
2022-09-14T12:21:01.613Z,95446.94
2022-09-14T12:23:41.947Z,95439.06
2022-09-14T12:26:13.902Z,95437.19
2022-09-14T12:28:48.361Z,95436.09
2022-09-14T12:31:32.732Z,95442.31
2022-09-14T12:34:16.233Z,95443.47
2022-09-14T12:36:42.970Z,95432.03
2022-09-14T12:39:34.219Z,95437.78
2022-09-14T12:42:26.723Z,95430.72
2022-09-14T12:44:54.015Z,95439.50
2022-09-14T12:47:28.470Z,95445.63
2022-09-14T12:50:17.664Z,95455.19
2022-09-14T12:53:34.753Z,95458.59
2022-09-14T12:56:39.243Z,95467.59
2022-09-14T12:59:31.267Z,95474.88
2022-09-14T13:02:25.570Z,95470.75
2022-09-14T13:04:55.408Z,95473.31
2022-09-14T13:07:23.163Z,95470.66
2022-09-14T13:09:54.810Z,95472.34
2022-09-14T13:12:41.602Z,95461.78
2022-09-14T13:15:28.620Z,95457.53
2022-09-14T13:18:05.143Z,95450.50
2022-09-14T13:20:35.386Z,95442.84
2022-09-14T13:23:03.252Z,95449.94
2022-09-14T13:25:37.421Z,95451.19
2022-09-14T13:28:11.260Z,95450.00
2022-09-14T13:30:38.349Z,95451.28
2022-09-14T13:33:05.252Z,95441.06
2022-09-14T13:35:45.976Z,95442.28
2022-09-14T13:38:22.224Z,95441.78
2022-09-14T13:40:51.637Z,95443.53
2022-09-14T13:43:21.011Z,95441.66
2022-09-14T13:45:50.036Z,95427.94
2022-09-14T13:48:20.059Z,95415.97
2022-09-14T13:50:51.773Z,95418.44
2022-09-14T13:53:48.952Z,95417.31
2022-09-14T13:56:36.089Z,95410.56
2022-09-14T13:59:08.591Z,95420.41
2022-09-14T14:01:40.456Z,95416.41
2022-09-14T14:04:35.926Z,95408.50
2022-09-14T14:07:12.845Z,95412.00
2022-09-14T14:09:50.594Z,95412.25
2022-09-14T14:12:39.252Z,95397.06
2022-09-14T14:15:11.050Z,95402.41
2022-09-14T14:17:40.623Z,95398.69
2022-09-14T14:20:33.387Z,95398.31
2022-09-14T14:23:08.582Z,95382.63
2022-09-14T14:25:44.827Z,95389.19
2022-09-14T14:28:22.534Z,95396.66
2022-09-14T14:30:50.435Z,95399.88
2022-09-14T14:33:19.131Z,95377.34
2022-09-14T14:35:48.390Z,95400.34
2022-09-14T14:38:16.131Z,95384.34
2022-09-14T14:40:43.936Z,95379.47
2022-09-14T14:43:21.179Z,95376.94
2022-09-14T14:45:48.811Z,95396.41
2022-09-14T14:48:15.727Z,95409.13
2022-09-14T14:50:42.511Z,95419.66
2022-09-14T14:53:09.274Z,95412.34
2022-09-14T14:55:37.456Z,95418.38
2022-09-14T14:58:08.591Z,95419.03
2022-09-14T15:00:38.324Z,95451.78
2022-09-14T15:03:05.215Z,95442.34
2022-09-14T15:05:32.280Z,95451.97
2022-09-14T15:07:59.145Z,95451.72
2022-09-14T15:10:29.075Z,95460.75
2022-09-14T15:12:55.903Z,95461.84
2022-09-14T15:15:26.278Z,95454.84
2022-09-14T15:17:54.232Z,95459.72
2022-09-14T15:20:22.042Z,95470.06
2022-09-14T15:22:49.560Z,95470.81
2022-09-14T15:25:18.732Z,95474.25
2022-09-14T15:27:45.556Z,95481.50
2022-09-14T15:30:13.963Z,95484.56
2022-09-14T15:32:41.586Z,95485.03
2022-09-14T15:35:13.813Z,95495.78
2022-09-14T15:37:41.472Z,95487.09
2022-09-14T15:40:09.773Z,95500.63
2022-09-14T15:42:36.661Z,95503.84
2022-09-14T15:45:04.494Z,95489.34
2022-09-14T15:47:36.082Z,95501.56
2022-09-14T15:50:04.452Z,95501.38
2022-09-14T15:52:31.280Z,95505.44
2022-09-14T15:54:58.033Z,95516.78
2022-09-14T15:57:24.996Z,95511.00
2022-09-14T15:59:54.418Z,95519.34
2022-09-14T16:02:21.260Z,95519.13
2022-09-14T16:04:48.052Z,95523.72
2022-09-14T16:07:15.051Z,95538.78
2022-09-14T16:09:42.391Z,95538.75
2022-09-14T16:12:11.384Z,95536.31
2022-09-14T16:14:38.314Z,95529.09
2022-09-14T16:17:08.128Z,95516.16
2022-09-14T16:19:35.102Z,95513.16
2022-09-14T16:22:01.887Z,95503.84
2022-09-14T16:24:29.064Z,95510.72
2022-09-14T16:26:57.721Z,95506.06
2022-09-14T16:29:25.439Z,95509.13
2022-09-14T16:31:52.863Z,95502.19
2022-09-14T16:34:26.434Z,95488.41
2022-09-14T16:36:53.543Z,95495.34
2022-09-14T16:39:23.771Z,95481.72
2022-09-14T16:41:51.516Z,95482.06
2022-09-14T16:44:21.561Z,95479.44
2022-09-14T16:46:51.543Z,95476.63
2022-09-14T16:49:21.343Z,95470.75
2022-09-14T16:51:51.707Z,95472.00
2022-09-14T16:54:21.616Z,95467.16
2022-09-14T16:56:48.853Z,95470.75
2022-09-14T16:59:17.458Z,95470.59
2022-09-14T17:01:50.789Z,95465.50
2022-09-14T17:04:21.554Z,95461.56
2022-09-14T17:06:50.311Z,95463.97
2022-09-14T17:09:21.633Z,95465.41
2022-09-14T17:11:48.919Z,95462.22
2022-09-14T17:14:18.850Z,95458.63
2022-09-14T17:16:45.850Z,95447.69
2022-09-14T17:19:13.390Z,95445.09
2022-09-14T17:21:42.704Z,95438.59
2022-09-14T17:24:10.752Z,95445.44
2022-09-14T17:26:38.357Z,95446.81
2022-09-14T17:29:06.702Z,95447.81
2022-09-14T17:31:37.967Z,95456.81
2022-09-14T17:34:07.229Z,95463.06
2022-09-14T17:36:34.501Z,95467.16
2022-09-14T17:39:07.890Z,95469.22
2022-09-14T17:41:38.502Z,95469.22
2022-09-14T17:44:07.276Z,95468.13
2022-09-14T17:46:34.570Z,95470.25
2022-09-14T17:49:04.622Z,95466.03
2022-09-14T17:51:34.149Z,95473.25
2022-09-14T17:54:01.877Z,95468.97
2022-09-14T17:56:29.870Z,95474.13
2022-09-14T17:59:06.763Z,95468.19
2022-09-14T18:01:34.516Z,95476.25
2022-09-14T18:04:11.590Z,95491.28
2022-09-14T18:06:42.621Z,95488.09
2022-09-14T18:09:15.326Z,95496.97
2022-09-14T18:11:42.763Z,95502.97
2022-09-14T18:14:12.651Z,95497.34
2022-09-14T18:16:40.449Z,95502.13
2022-09-14T18:19:07.533Z,95499.78
2022-09-14T18:21:34.527Z,95506.03
2022-09-14T18:24:01.503Z,95499.66
2022-09-14T18:26:28.380Z,95498.13
2022-09-14T18:28:58.895Z,95494.94
2022-09-14T18:31:26.714Z,95495.56
2022-09-14T18:34:00.142Z,95494.22
2022-09-14T18:36:29.432Z,95502.25
2022-09-14T18:38:58.149Z,95501.25
2022-09-14T18:41:25.176Z,95515.75
2022-09-14T18:43:53.403Z,95526.41
2022-09-14T18:46:25.757Z,95529.88
2022-09-14T18:48:57.727Z,95529.63
2022-09-14T18:51:25.306Z,95530.94
2022-09-14T18:54:03.154Z,95532.84
2022-09-14T18:56:33.152Z,95543.56
2022-09-14T18:59:02.031Z,95548.84
2022-09-14T19:01:28.965Z,95553.69
2022-09-14T19:03:56.444Z,95559.97
2022-09-14T19:06:23.439Z,95563.38
2022-09-14T19:08:50.760Z,95553.91
2022-09-14T19:11:21.506Z,95557.50
2022-09-14T19:13:50.737Z,95547.94
2022-09-14T19:16:19.282Z,95543.13
2022-09-14T19:18:48.573Z,95529.78
2022-09-14T19:21:28.361Z,95523.38
2022-09-14T19:24:07.930Z,95522.41
2022-09-14T19:26:44.761Z,95526.72
2022-09-14T19:29:14.018Z,95524.50
2022-09-14T19:31:40.938Z,95514.88
2022-09-14T19:34:07.808Z,95524.47
2022-09-14T19:36:35.086Z,95524.19
2022-09-14T19:39:02.988Z,95518.31
2022-09-14T19:41:32.838Z,95517.03
2022-09-14T19:44:01.168Z,95521.25
2022-09-14T19:46:28.755Z,95522.38
2022-09-14T19:48:55.898Z,95529.31
2022-09-14T19:51:26.353Z,95535.75
2022-09-14T19:53:56.444Z,95540.13
2022-09-14T19:56:26.562Z,95540.59
2022-09-14T19:58:56.732Z,95543.31
2022-09-14T20:01:26.161Z,95539.09
2022-09-14T20:03:53.523Z,95535.09
2022-09-14T20:06:25.972Z,95541.22
2022-09-14T20:08:56.873Z,95542.38
2022-09-14T20:11:26.650Z,95549.38
2022-09-14T20:13:55.737Z,95548.56
2022-09-14T20:16:29.845Z,95552.03
2022-09-14T20:18:59.422Z,95548.81
2022-09-14T20:21:27.929Z,95551.50
2022-09-14T20:24:17.454Z,95557.91
2022-09-14T20:26:49.750Z,95549.41
2022-09-14T20:29:19.258Z,95548.91
2022-09-14T20:31:47.178Z,95535.03
2022-09-14T20:34:16.513Z,95550.56
2022-09-14T20:36:43.758Z,95543.06
2022-09-14T20:39:10.892Z,95545.25
2022-09-14T20:41:37.792Z,95536.19
2022-09-14T20:44:05.580Z,95537.81
2022-09-14T20:46:39.516Z,95548.00
2022-09-14T20:49:13.143Z,95544.00
2022-09-14T20:51:41.079Z,95553.38
2022-09-14T20:54:12.254Z,95548.00
2022-09-14T20:56:39.453Z,95547.50
2022-09-14T20:59:11.092Z,95545.34
2022-09-14T21:01:41.192Z,95546.44
2022-09-14T21:04:21.005Z,95549.09
2022-09-14T21:06:52.577Z,95551.19
2022-09-14T21:09:22.627Z,95562.66
2022-09-14T21:11:49.526Z,95561.34
2022-09-14T21:14:17.971Z,95557.88
2022-09-14T21:16:49.183Z,95560.81
2022-09-14T21:19:21.328Z,95557.84
2022-09-14T21:21:50.050Z,95552.81
2022-09-14T21:24:19.279Z,95540.31
2022-09-14T21:26:46.131Z,95542.72
2022-09-14T21:29:18.099Z,95546.16
2022-09-14T21:31:45.204Z,95550.13
2022-09-14T21:34:12.746Z,95545.91
2022-09-14T21:36:57.483Z,95552.81
2022-09-14T21:39:26.954Z,95556.28
2022-09-14T21:41:59.079Z,95560.25
2022-09-14T21:44:31.423Z,95556.31
2022-09-14T21:46:58.523Z,95557.38
2022-09-14T21:49:25.354Z,95557.09
2022-09-14T21:51:52.252Z,95566.66
2022-09-14T21:54:20.294Z,95581.56
2022-09-14T21:56:47.520Z,95575.16
2022-09-14T21:59:18.154Z,95579.44
2022-09-14T22:01:45.593Z,95579.94
2022-09-14T22:04:24.518Z,95568.25
2022-09-14T22:06:53.111Z,95565.56
2022-09-14T22:09:24.768Z,95561.31
2022-09-14T22:11:52.357Z,95573.03
2022-09-14T22:14:23.902Z,95568.75
2022-09-14T22:16:51.306Z,95570.34
2022-09-14T22:19:23.644Z,95569.28
2022-09-14T22:21:51.356Z,95561.53
2022-09-14T22:24:22.788Z,95550.06
2022-09-14T22:26:50.381Z,95556.94
2022-09-14T22:29:18.115Z,95558.25
2022-09-14T22:31:45.826Z,95554.22
2022-09-14T22:34:13.279Z,95545.19
2022-09-14T22:36:40.309Z,95547.88
2022-09-14T22:39:08.227Z,95551.63
2022-09-14T22:41:35.899Z,95542.03
2022-09-14T22:44:04.011Z,95543.09
2022-09-14T22:46:30.890Z,95547.91
2022-09-14T22:48:57.768Z,95554.59
2022-09-14T22:51:27.570Z,95558.06
2022-09-14T22:53:55.127Z,95558.06
2022-09-14T22:56:26.303Z,95551.44
2022-09-14T22:58:53.585Z,95545.31
2022-09-14T23:01:24.972Z,95540.28
2022-09-14T23:04:00.858Z,95548.25
2022-09-14T23:06:51.587Z,95553.34
2022-09-14T23:09:21.866Z,95570.38
2022-09-14T23:11:49.140Z,95577.31
2022-09-14T23:14:17.065Z,95578.38
2022-09-14T23:16:47.010Z,95578.38
2022-09-14T23:19:16.797Z,95581.56
2022-09-14T23:21:44.117Z,95580.22
2022-09-14T23:24:11.286Z,95583.16
2022-09-14T23:26:38.492Z,95583.69
2022-09-14T23:29:09.143Z,95578.34
2022-09-14T23:31:35.994Z,95585.31
2022-09-14T23:34:04.871Z,95584.25
2022-09-14T23:36:32.747Z,95579.16
2022-09-14T23:38:59.599Z,95587.44
2022-09-14T23:41:28.051Z,95582.09
2022-09-14T23:43:55.264Z,95576.97
2022-09-14T23:46:23.169Z,95578.03
2022-09-14T23:48:50.420Z,95576.44
2022-09-14T23:51:17.718Z,95570.53
2022-09-14T23:53:44.854Z,95570.81
2022-09-14T23:56:12.410Z,95564.91
2022-09-14T23:58:41.352Z,95565.47
